Airfield :







YOU CAN JOIN US ON...

 
LOGIN :

Register | Disclaimer

   EN    FR    IT 

 









Legend :    VFR   Marginal VFR   IFR   Intensive IFR   Very Intensive IFR
Visi :
Ceiling :
>= 8 km
>= 3000ft
5 to 8 km
1000 to 3000 ft
1500m to 5 km
500 to 1000 ft
800 to 1500m
200 to 500 ft
< 800m
< 200 ft
Symbols :   Thunderstorms  Fog  Heavy snow  Heavy precipitations  Wind > 20 kt






- Airport Elevation : 180 ft
- IATA code : YZV


CYZV - Sept-Iles

CURRENT METAR :
  • 012216Z 08007KT 20SM -RA FEW001 OVC030 15/13 A2973 RMK SF1SC8 SF TR SLP070 DENSITY ALT 400FT

EXPIRED METARs :
  • 011600Z 12009KT 30SM FEW037 BKN047 OVC060 16/09 A2983 RMK CF1SC7SC1 CF TR SLP106 DENSITY ALT 500FT
  • 012100Z 07007KT 30SM FEW001 OVC032 15/12 A2975 RMK SF1SC8 SF TR SLP078 DENSITY ALT 500FT
  • 012000Z 08007KT 30SM FEW001 BKN030 OVC038 15/11 A2978 RMK SF1SC5SC3 SF TR SLP089 DENSITY ALT 400FT
  • 010500Z 04004KT 15SM SCT220 09/06 A2996 RMK CI3 SLP149

TAF TAF CYZV
Valid from the 01 at 18:00 until the 02 at 18:00 UTC


011740Z 0118/0218 12010KT P6SM OVC040
TEMPO 0118/0119 5SM -SHRA BR
FM011900 10008KT P6SM -RA SCT012 OVC040
TEMPO 0119/0201 4SM -SHRA BR OVC020
FM020100 08008KT 3SM -RA BR BKN005 OVC012
FM020400 08005KT 4SM -DZ BR BKN004 OVC008
PROB30 0204/0212 1/4SM FG VV001
FM021700 14008KT P6SM -SHRA SCT008 OVC025 RMK NXT FCST BY 020000Z
CZUL FIR / North America



MET'MAP, your aeronautical weather chart ! - Copyright ORBIFLY December 2007 - Disclaimer

ORBIFLY MET'MAP TEAM :

Programming & Development : Alexandra Zaïnal
Original concept : Baudouin d'Aumeries
Technical & hardware support : Manuel Goepfert
Assistance : Marc-Olivier Méhu




SOURCES & CREDITS :

   NOAA